Station Historical Data
Daily Summary for April 13, 2017 Units:  Metric    English   Both
« Previous Day
Next Day »
Daily Weekly Monthly Yearly Custom
  High: Low: Average:
Temperature: 12.1 °C -1.9 °C 5.8 °C
Dew Point: 1.5 °C -4.1 °C -1.3 °C
Humidity: 90% 41% 63%
Wind Speed: 11.3km/h 0km/h 1.9km/h
Wind Gust: 14.5km/h - -
Wind- - SW
Pressure: 1034.4 hPa 1029 hPa -
Precipitation: 0 mm    
Historical Graphs
 
 
Tabular Data for April 13, 2017
Time Temperature Dew Point Pressure Wind Wind Speed Wind Gust Humidity Rainfall Rate (Hourly)
00:04 3.5 °C 0.7 °C 1030.7 hPa WNW 3.2 km/h 6.4 km/h 82% 0 mm
00:09 3.4 °C 0.7 °C 1030.7 hPa West 4.8 km/h 9.7 km/h 82% 0 mm
00:14 3.6 °C 0.6 °C 1030.7 hPa West 3.2 km/h 8 km/h 81% 0 mm
00:19 3.6 °C 0.3 °C 1030.7 hPa WNW 3.2 km/h 8 km/h 79% 0 mm
00:24 3.7 °C 0.2 °C 1030.7 hPa NW 8 km/h 9.7 km/h 78% 0 mm
00:29 3.7 °C 0.1 °C 1030.7 hPa WNW 3.2 km/h 9.7 km/h 77% 0 mm
00:34 3.7 °C -0.1 °C 1031 hPa NW 4.8 km/h 9.7 km/h 76% 0 mm
00:39 3.7 °C -0.3 °C 1031 hPa NW 4.8 km/h 11.3 km/h 75% 0 mm
00:44 3.6 °C -0.4 °C 1031 hPa NW 4.8 km/h 11.3 km/h 75% 0 mm
00:49 3.4 °C -0.8 °C 1031 hPa NW 4.8 km/h 9.7 km/h 74% 0 mm
00:54 3.4 °C -0.8 °C 1031 hPa NW 4.8 km/h 8 km/h 74% 0 mm
00:59 3.3 °C -1.1 °C 1031 hPa NW 3.2 km/h 8 km/h 73% 0 mm
01:04 3.2 °C -1 °C 1031 hPa NW 3.2 km/h 9.7 km/h 74% 0 mm
01:09 3.1 °C -1.1 °C 1031 hPa NW 3.2 km/h 9.7 km/h 74% 0 mm
01:14 3.1 °C -1.1 °C 1031 hPa WNW 3.2 km/h 8 km/h 74% 0 mm
01:19 2.9 °C -1.3 °C 1031 hPa NW 1.6 km/h 8 km/h 74% 0 mm
01:24 2.8 °C -1.4 °C 1031 hPa Calm   3.2 km/h 74% 0 mm
01:29 2.6 °C -1.4 °C 1031 hPa Calm     75% 0 mm
01:34 2.3 °C -1.7 °C 1031 hPa NW 1.6 km/h 3.2 km/h 75% 0 mm
01:39 2.3 °C -1.4 °C 1031 hPa NW 1.6 km/h 4.8 km/h 76% 0 mm
01:44 2.3 °C -1.5 °C 1031 hPa NW 1.6 km/h 4.8 km/h 76% 0 mm
01:49 2.2 °C -1.6 °C 1030.7 hPa Calm   4.8 km/h 76% 0 mm
01:54 2.1 °C -1.7 °C 1030.7 hPa Calm   3.2 km/h 76% 0 mm
01:59 1.8 °C -1.8 °C 1030.7 hPa Calm   1.6 km/h 77% 0 mm
02:04 1.4 °C -2 °C 1030.7 hPa Calm     78% 0 mm
02:09 1.3 °C -2.1 °C 1030.7 hPa Calm     78% 0 mm
02:14 1.1 °C -2.1 °C 1030.7 hPa Calm     79% 0 mm
02:19 0.9 °C -2.3 °C 1030.7 hPa Calm     79% 0 mm
02:24 0.9 °C -2.2 °C 1030.7 hPa Calm     80% 0 mm
02:29 0.8 °C -2.2 °C 1031 hPa Calm     80% 0 mm
02:34 0.7 °C -2.2 °C 1030.7 hPa Calm     81% 0 mm
02:39 0.6 °C -2.3 °C 1030.7 hPa Calm     81% 0 mm
02:44 0.4 °C -2.3 °C 1031 hPa Calm     82% 0 mm
02:49 0.3 °C -2.4 °C 1031 hPa Calm     82% 0 mm
02:54 0.2 °C -2.5 °C 1031 hPa Calm     82% 0 mm
02:59 0.2 °C -2.4 °C 1031 hPa Calm     83% 0 mm
03:04 0.2 °C -2.3 °C 1031 hPa Calm     83% 0 mm
03:09 0.2 °C -2.4 °C 1031 hPa Calm     83% 0 mm
03:14 0.2 °C -2.4 °C 1031 hPa Calm     83% 0 mm
03:19 0.2 °C -2.4 °C 1031 hPa Calm     83% 0 mm
03:24 0.1 °C -2.4 °C 1031.4 hPa Calm     83% 0 mm
03:29 0.1 °C -2.5 °C 1031 hPa Calm     83% 0 mm
03:34 0.1 °C -2.5 °C 1031.4 hPa NW 3.2 km/h 3.2 km/h 83% 0 mm
03:39 0 °C -2.6 °C 1031.4 hPa Calm   3.2 km/h 83% 0 mm
03:44 -0.1 °C -2.7 °C 1031.4 hPa Calm     83% 0 mm
03:49 -0.2 °C -2.7 °C 1031.4 hPa Calm     83% 0 mm
03:54 -0.3 °C -2.8 °C 1031.4 hPa Calm     83% 0 mm
03:59 -0.3 °C -2.9 °C 1031.4 hPa Calm     83% 0 mm
04:04 -0.4 °C -2.9 °C 1031.4 hPa Calm     83% 0 mm
04:09 -0.4 °C -2.9 °C 1031.4 hPa Calm     83% 0 mm
04:14 -0.5 °C -3.1 °C 1031.7 hPa Calm     83% 0 mm
04:19 -0.6 °C -3.1 °C 1031.4 hPa Calm     83% 0 mm
04:24 -0.6 °C -3.2 °C 1031.4 hPa Calm     83% 0 mm
04:29 -0.7 °C -3.2 °C 1031.4 hPa Calm     83% 0 mm
04:34 -0.7 °C -3.3 °C 1031.7 hPa Calm     83% 0 mm
04:39 -0.8 °C -3.3 °C 1031.7 hPa Calm     83% 0 mm
04:44 -0.8 °C -3.3 °C 1031.7 hPa Calm     83% 0 mm
04:49 -0.9 °C -3.4 °C 1031.7 hPa Calm     83% 0 mm
04:54 -0.9 °C -3.4 °C 1031.7 hPa Calm     83% 0 mm
04:59 -0.9 °C -3.3 °C 1031.7 hPa Calm     84% 0 mm
05:04 -0.9 °C -3.3 °C 1031.7 hPa Calm     84% 0 mm
05:09 -1 °C -3.4 °C 1031.7 hPa Calm     84% 0 mm
05:14 -1.1 °C -3.4 °C 1031.7 hPa Calm     84% 0 mm
05:19 -1.1 °C -3.4 °C 1031.7 hPa Calm     84% 0 mm
05:24 -1.2 °C -3.5 °C 1031.7 hPa Calm     84% 0 mm
05:29 -1.2 °C -3.6 °C 1031.7 hPa Calm     84% 0 mm
05:34 -1.3 °C -3.6 °C 1031.7 hPa Calm     84% 0 mm
05:39 -1.4 °C -3.7 °C 1031.7 hPa Calm     84% 0 mm
05:44 -1.4 °C -3.8 °C 1031.7 hPa Calm     84% 0 mm
05:49 -1.5 °C -3.8 °C 1031.7 hPa Calm     84% 0 mm
05:54 -1.6 °C -3.9 °C 1031.7 hPa Calm     84% 0 mm
05:59 -1.6 °C -3.9 °C 1031.7 hPa Calm     84% 0 mm
06:04 -1.6 °C -3.9 °C 1031.7 hPa Calm     84% 0 mm
06:09 -1.6 °C -3.8 °C 1031.7 hPa Calm     85% 0 mm
06:14 -1.6 °C -3.8 °C 1031.7 hPa Calm     85% 0 mm
06:19 -1.7 °C -3.8 °C 1032.1 hPa Calm     85% 0 mm
06:24 -1.7 °C -3.8 °C 1032.1 hPa Calm     85% 0 mm
06:29 -1.7 °C -3.9 °C 1032.1 hPa Calm     85% 0 mm
06:34 -1.8 °C -3.9 °C 1032.1 hPa Calm     85% 0 mm
06:39 -1.8 °C -4 °C 1032.1 hPa Calm     85% 0 mm
06:44 -1.8 °C -4 °C 1032.1 hPa Calm     85% 0 mm
06:49 -1.9 °C -4.1 °C 1032.1 hPa Calm     85% 0 mm
06:54 -1.9 °C -4.1 °C 1032.4 hPa Calm     85% 0 mm
06:59 -1.9 °C -4.1 °C 1032.4 hPa Calm     85% 0 mm
07:04 -1.9 °C -4.1 °C 1032.1 hPa Calm     85% 0 mm
07:09 -1.9 °C -4 °C 1032.1 hPa Calm     86% 0 mm
07:14 -1.9 °C -3.9 °C 1032.1 hPa Calm     86% 0 mm
07:19 -1.8 °C -3.9 °C 1032.1 hPa Calm     86% 0 mm
07:24 -1.7 °C -3.6 °C 1032.4 hPa Calm     87% 0 mm
07:29 -1.6 °C -3.4 °C 1032.4 hPa Calm     87% 0 mm
07:34 -1.4 °C -3.3 °C 1032.4 hPa Calm     87% 0 mm
07:39 -1.3 °C -3 °C 1032.7 hPa Calm     88% 0 mm
07:44 -1 °C -2.7 °C 1032.7 hPa Calm     88% 0 mm
07:49 -0.8 °C -2.5 °C 1033.1 hPa Calm     88% 0 mm
07:54 -0.4 °C -2.1 °C 1033.1 hPa Calm     89% 0 mm
07:59 0.6 °C -0.9 °C 1033.1 hPa Calm     90% 0 mm
08:04 1.9 °C -0.2 °C 1032.7 hPa Calm     86% 0 mm
08:09 2.6 °C -0.1 °C 1033.1 hPa Calm     83% 0 mm
08:14 2.9 °C -0.4 °C 1033.1 hPa Calm     79% 0 mm
08:19 3.2 °C -0.2 °C 1033.1 hPa Calm     78% 0 mm
08:24 3.4 °C -0.1 °C 1033.4 hPa Calm     78% 0 mm
08:29 3.6 °C -0.1 °C 1033.4 hPa Calm     77% 0 mm
08:34 3.8 °C -0.2 °C 1033.4 hPa Calm     75% 0 mm
08:39 4.2 °C -0.1 °C 1033.4 hPa Calm     74% 0 mm
08:44 4.2 °C 0.1 °C 1033.4 hPa Calm     75% 0 mm
08:49 4.6 °C 0.1 °C 1033.4 hPa NW 1.6 km/h 3.2 km/h 73% 0 mm
08:54 4.9 °C 0.4 °C 1033.4 hPa Calm   3.2 km/h 73% 0 mm
08:59 5.1 °C 0.1 °C 1033.4 hPa Calm     70% 0 mm
09:04 5.6 °C 0.8 °C 1033.4 hPa Calm   6.4 km/h 71% 0 mm
09:09 5.9 °C 0.7 °C 1033.4 hPa WNW 1.6 km/h 6.4 km/h 69% 0 mm
09:14 6.2 °C 0.3 °C 1033.4 hPa NW 1.6 km/h 4.8 km/h 66% 0 mm
09:19 5.8 °C 0.5 °C 1033.4 hPa Calm   3.2 km/h 69% 0 mm
09:24 6.1 °C 1.1 °C 1033.4 hPa NW 1.6 km/h 6.4 km/h 70% 0 mm
09:29 6.4 °C 0.9 °C 1033.4 hPa WSW 3.2 km/h 4.8 km/h 68% 0 mm
09:34 6 °C 0.1 °C 1033.7 hPa WSW 3.2 km/h 4.8 km/h 66% 0 mm
09:39 6.4 °C 0.5 °C 1033.7 hPa West 8 km/h 8 km/h 66% 0 mm
09:44 6.4 °C 0.1 °C 1033.7 hPa WSW 1.6 km/h 8 km/h 64% 0 mm
09:49 6.6 °C 0.9 °C 1034.1 hPa West 4.8 km/h 6.4 km/h 67% 0 mm
09:54 6.8 °C 0.4 °C 1034.4 hPa SW 4.8 km/h 11.3 km/h 64% 0 mm
09:59 7 °C 0.2 °C 1034.4 hPa WSW 4.8 km/h 11.3 km/h 62% 0 mm
10:04 7.3 °C 0.3 °C 1034.4 hPa WSW 4.8 km/h 8 km/h 61% 0 mm
10:09 7.4 °C 0.8 °C 1034.4 hPa WSW 4.8 km/h 8 km/h 63% 0 mm
10:14 7.8 °C 1.2 °C 1034.1 hPa SW 6.4 km/h 11.3 km/h 63% 0 mm
10:19 7.7 °C 0.8 °C 1034.1 hPa SSW 8 km/h 9.7 km/h 62% 0 mm
10:24 7.7 °C 0.7 °C 1034.1 hPa South 3.2 km/h 9.7 km/h 61% 0 mm
10:29 7.8 °C 0.7 °C 1034.1 hPa SSW 6.4 km/h 9.7 km/h 61% 0 mm
10:34 7.9 °C 0.7 °C 1033.7 hPa SW 6.4 km/h 11.3 km/h 60% 0 mm
10:39 7.8 °C 0 °C 1034.1 hPa SW 6.4 km/h 12.9 km/h 58% 0 mm
10:44 7.5 °C 0.2 °C 1034.1 hPa SW 6.4 km/h 12.9 km/h 60% 0 mm
10:49 7.3 °C 0.3 °C 1034.1 hPa SW 1.6 km/h 11.3 km/h 61% 0 mm
10:54 7.4 °C 0.4 °C 1034.1 hPa SSW 11.3 km/h 12.9 km/h 61% 0 mm
10:59 7.4 °C 0.4 °C 1034.1 hPa WSW 6.4 km/h 12.9 km/h 61% 0 mm
11:04 7.2 °C -0.1 °C 1034.1 hPa WSW 4.8 km/h 12.9 km/h 60% 0 mm
11:09 7.3 °C -0.2 °C 1034.1 hPa West 4.8 km/h 14.5 km/h 59% 0 mm
11:14 7.4 °C -0.1 °C 1034.1 hPa West 3.2 km/h 14.5 km/h 59% 0 mm
11:19 7.3 °C 0.2 °C 1033.7 hPa WSW 8 km/h 11.3 km/h 61% 0 mm
11:24 7.6 °C 0.7 °C 1033.7 hPa SW 4.8 km/h 12.9 km/h 62% 0 mm
11:29 7.7 °C -0.1 °C 1033.7 hPa WSW 6.4 km/h 12.9 km/h 58% 0 mm
11:34 8.1 °C 0.3 °C 1033.7 hPa West 4.8 km/h 11.3 km/h 58% 0 mm
11:39 8.3 °C -0.2 °C 1033.7 hPa SW 3.2 km/h 11.3 km/h 55% 0 mm
11:44 8.4 °C 0.8 °C 1033.7 hPa SW 4.8 km/h 11.3 km/h 59% 0 mm
11:49 8.3 °C 0 °C 1033.4 hPa SW 3.2 km/h 8 km/h 56% 0 mm
11:54 8.4 °C -0.1 °C 1033.4 hPa South 1.6 km/h 8 km/h 55% 0 mm
11:59 9 °C 0.4 °C 1033.4 hPa NW 3.2 km/h 6.4 km/h 55% 0 mm
12:04 9.2 °C 0.6 °C 1033.4 hPa NW 4.8 km/h 8 km/h 55% 0 mm
12:09 9.2 °C 0.1 °C 1033.4 hPa WSW 1.6 km/h 6.4 km/h 53% 0 mm
12:14 9.7 °C 1.1 °C 1033.4 hPa NW 4.8 km/h 8 km/h 55% 0 mm
12:19 9.6 °C 0.5 °C 1033.4 hPa West 3.2 km/h 6.4 km/h 53% 0 mm
12:24 9.6 °C 1 °C 1033.4 hPa SSW 1.6 km/h 6.4 km/h 55% 0 mm
12:29 9.7 °C 0.6 °C 1033.4 hPa WSW 3.2 km/h 6.4 km/h 53% 0 mm
12:34 10.1 °C 0.4 °C 1033.4 hPa WNW 4.8 km/h 11.3 km/h 51% 0 mm
12:39 9.4 °C 0.6 °C 1033.4 hPa WNW 3.2 km/h 11.3 km/h 54% 0 mm
12:44 9.3 °C -0.6 °C 1033.4 hPa SW 1.6 km/h 9.7 km/h 50% 0 mm
12:49 9.6 °C -0.9 °C 1033.4 hPa West 3.2 km/h 9.7 km/h 48% 0 mm
12:54 9.7 °C 0 °C 1033.1 hPa NW 3.2 km/h 3.2 km/h 51% 0 mm
12:59 10.3 °C 0.3 °C 1033.1 hPa NW 3.2 km/h 6.4 km/h 50% 0 mm
13:04 10.2 °C -0.3 °C 1033.1 hPa NW 3.2 km/h 11.3 km/h 48% 0 mm
13:09 10.2 °C 0.2 °C 1033.1 hPa WNW 1.6 km/h 8 km/h 50% 0 mm
13:14 9.9 °C 0 °C 1033.1 hPa SW 4.8 km/h 6.4 km/h 50% 0 mm
13:19 10.1 °C 0.4 °C 1032.7 hPa NW 3.2 km/h 9.7 km/h 51% 0 mm
13:24 9.8 °C -0.7 °C 1032.7 hPa NNE 3.2 km/h 8 km/h 48% 0 mm
13:29 9.7 °C -0.5 °C 1032.7 hPa North 3.2 km/h 8 km/h 49% 0 mm
13:34 10.1 °C 0.7 °C 1032.7 hPa NW 3.2 km/h 9.7 km/h 52% 0 mm
13:39 9.8 °C -0.4 °C 1032.7 hPa WNW 3.2 km/h 9.7 km/h 49% 0 mm
13:44 9.9 °C -0.6 °C 1032.7 hPa NNW 4.8 km/h 11.3 km/h 48% 0 mm
13:49 9.8 °C -0.2 °C 1032.4 hPa NW 1.6 km/h 6.4 km/h 50% 0 mm
13:54 10.2 °C 1 °C 1032.4 hPa NW 3.2 km/h 8 km/h 53% 0 mm
13:59 9.9 °C -0.6 °C 1032.4 hPa WNW 3.2 km/h 8 km/h 48% 0 mm
14:04 10.2 °C 0.5 °C 1032.4 hPa West 3.2 km/h 8 km/h 51% 0 mm
14:09 10.2 °C -0.1 °C 1032.4 hPa WNW 1.6 km/h 8 km/h 49% 0 mm
14:14 9.7 °C -0.8 °C 1032.4 hPa SSW 8 km/h 8 km/h 48% 0 mm
14:19 10.4 °C 0.4 °C 1032.4 hPa NW 3.2 km/h 9.7 km/h 50% 0 mm
14:24 11.1 °C 0.2 °C 1032.4 hPa WNW 4.8 km/h 9.7 km/h 47% 0 mm
14:29 10.7 °C -0.5 °C 1032.4 hPa ENE 1.6 km/h 8 km/h 46% 0 mm
14:34 10.3 °C -1.1 °C 1032.4 hPa East 1.6 km/h 8 km/h 45% 0 mm
14:39 10.3 °C -0.6 °C 1032.1 hPa West 3.2 km/h 8 km/h 47% 0 mm
14:44 9.9 °C 0.6 °C 1032.1 hPa South 3.2 km/h 12.9 km/h 52% 0 mm
14:49 9.7 °C 0 °C 1032.1 hPa SW 3.2 km/h 6.4 km/h 51% 0 mm
14:54 10.2 °C 1.3 °C 1031.7 hPa SW 3.2 km/h 9.7 km/h 54% 0 mm
14:59 10.3 °C 0.6 °C 1031.7 hPa SW 4.8 km/h 12.9 km/h 51% 0 mm
15:04 10.2 °C 0.7 °C 1031.7 hPa SW 4.8 km/h 12.9 km/h 52% 0 mm
15:09 9.9 °C 0.3 °C 1031.7 hPa SW 4.8 km/h 11.3 km/h 51% 0 mm
15:14 9.6 °C -0.3 °C 1031.7 hPa WSW 3.2 km/h 9.7 km/h 50% 0 mm
15:19 9.9 °C -0.1 °C 1031.7 hPa SW 3.2 km/h 8 km/h 50% 0 mm
15:24 10.3 °C 0.6 °C 1031.7 hPa South 3.2 km/h 9.7 km/h 51% 0 mm
15:29 10.1 °C 0.1 °C 1031.4 hPa SSW 6.4 km/h 11.3 km/h 50% 0 mm
15:34 9.9 °C -0.6 °C 1031.4 hPa WSW 1.6 km/h 14.5 km/h 48% 0 mm
15:39 10.5 °C 0.8 °C 1031.4 hPa SSW 3.2 km/h 9.7 km/h 51% 0 mm
15:44 10.4 °C 0.2 °C 1031.4 hPa SW 1.6 km/h 6.4 km/h 49% 0 mm
15:49 10.3 °C 0 °C 1031 hPa Calm   8 km/h 49% 0 mm
15:54 10.3 °C 0.1 °C 1031 hPa SSW 3.2 km/h 8 km/h 49% 0 mm
15:59 11.1 °C 1.1 °C 1031 hPa SSW 4.8 km/h 11.3 km/h 50% 0 mm
16:04 11.2 °C 0.6 °C 1030.7 hPa SW 4.8 km/h 11.3 km/h 48% 0 mm
16:09 11.3 °C 0.7 °C 1030.7 hPa SSW 4.8 km/h 9.7 km/h 48% 0 mm
16:14 11.6 °C 1.5 °C 1031 hPa SSW 4.8 km/h 11.3 km/h 50% 0 mm
16:19 12.1 °C 0.8 °C 1030.7 hPa SSW 4.8 km/h 12.9 km/h 46% 0 mm
16:24 11.6 °C -0.2 °C 1030.7 hPa SSW 4.8 km/h 12.9 km/h 44% 0 mm
16:29 11.6 °C 0.9 °C 1030.7 hPa South 3.2 km/h 11.3 km/h 48% 0 mm
16:34 11.4 °C 0.2 °C 1030.7 hPa South 1.6 km/h 9.7 km/h 46% 0 mm
16:39 11.6 °C 0.3 °C 1030.7 hPa South 8 km/h 9.7 km/h 46% 0 mm
16:44 11.2 °C 0.3 °C 1030.7 hPa South 4.8 km/h 9.7 km/h 47% 0 mm
16:49 11.5 °C -0.1 °C 1030.4 hPa South 3.2 km/h 9.7 km/h 45% 0 mm
16:54 11.6 °C 0.4 °C 1030.4 hPa South 4.8 km/h 11.3 km/h 46% 0 mm
16:59 11.9 °C 0.6 °C 1030.4 hPa South 4.8 km/h 11.3 km/h 46% 0 mm
17:04 11.8 °C 0.3 °C 1030.4 hPa SSW 3.2 km/h 11.3 km/h 45% 0 mm
17:09 11.6 °C 0.3 °C 1030.4 hPa SSW 3.2 km/h 9.7 km/h 46% 0 mm
17:14 11.5 °C 0.3 °C 1030.4 hPa SW 3.2 km/h 8 km/h 46% 0 mm
17:19 11.4 °C 0.2 °C 1030.4 hPa West 4.8 km/h 8 km/h 46% 0 mm
17:24 11.6 °C 0.3 °C 1030 hPa SW 1.6 km/h 8 km/h 46% 0 mm
17:29 11.8 °C 0.2 °C 1030 hPa SSW 1.6 km/h 9.7 km/h 45% 0 mm
17:34 11.6 °C 0.1 °C 1030 hPa South 3.2 km/h 9.7 km/h 45% 0 mm
17:39 11.7 °C 0.2 °C 1030 hPa SSW 4.8 km/h 8 km/h 45% 0 mm
17:44 11.6 °C -0.3 °C 1030 hPa SSW 4.8 km/h 8 km/h 44% 0 mm
17:49 11.4 °C -0.1 °C 1030 hPa Calm   4.8 km/h 45% 0 mm
17:54 11.3 °C -0.8 °C 1029.7 hPa Calm   4.8 km/h 43% 0 mm
17:59 11.4 °C -1.1 °C 1029.7 hPa NW 1.6 km/h 4.8 km/h 42% 0 mm
18:04 11.3 °C -0.9 °C 1029.7 hPa Calm   4.8 km/h 43% 0 mm
18:09 11.1 °C -1.4 °C 1029.7 hPa SW 1.6 km/h 4.8 km/h 42% 0 mm
18:14 11.3 °C 0.1 °C 1029.7 hPa NE 4.8 km/h 6.4 km/h 46% 0 mm
18:19 11.2 °C -0.7 °C 1029.7 hPa Calm   6.4 km/h 44% 0 mm
18:24 11.1 °C -0.8 °C 1029.7 hPa NE 1.6 km/h 6.4 km/h 44% 0 mm
18:29 11.1 °C -1.1 °C 1029.7 hPa Calm   3.2 km/h 43% 0 mm
18:34 11.2 °C -1.2 °C 1029.3 hPa Calm   3.2 km/h 42% 0 mm
18:39 11.2 °C -1.3 °C 1029.3 hPa SE 1.6 km/h 4.8 km/h 42% 0 mm
18:44 11.1 °C -0.8 °C 1029.3 hPa SSW 4.8 km/h 4.8 km/h 44% 0 mm
18:49 11.1 °C -1.4 °C 1029.3 hPa SSW 1.6 km/h 6.4 km/h 42% 0 mm
18:54 11.2 °C -0.9 °C 1029.3 hPa SSW 3.2 km/h 6.4 km/h 43% 0 mm
18:59 11.1 °C -1.3 °C 1029.3 hPa South 1.6 km/h 6.4 km/h 42% 0 mm
19:04 10.9 °C -1.8 °C 1029.3 hPa Calm   4.8 km/h 41% 0 mm
19:09 10.9 °C -1.6 °C 1029.3 hPa Calm     42% 0 mm
19:14 10.9 °C -1.9 °C 1029.7 hPa Calm     41% 0 mm
19:19 10.7 °C -1.7 °C 1029.7 hPa Calm     42% 0 mm
19:24 10.4 °C -1.7 °C 1029.7 hPa Calm     43% 0 mm
19:29 10.4 °C -2 °C 1030 hPa North 1.6 km/h 4.8 km/h 42% 0 mm
19:34 10.5 °C -1.9 °C 1029.7 hPa North 3.2 km/h 4.8 km/h 42% 0 mm
19:39 10.5 °C -1.9 °C 1029.7 hPa Calm   3.2 km/h 42% 0 mm
19:44 10.4 °C -2 °C 1029.7 hPa Calm   3.2 km/h 42% 0 mm
19:49 10.3 °C -2.1 °C 1029.7 hPa NE 4.8 km/h 6.4 km/h 42% 0 mm
19:54 10.2 °C -2.2 °C 1029.3 hPa NE 1.6 km/h 6.4 km/h 42% 0 mm
19:59 10.2 °C -2.5 °C 1029.7 hPa NE 3.2 km/h 6.4 km/h 41% 0 mm
20:04 10.1 °C -2.2 °C 1029.7 hPa NE 3.2 km/h 4.8 km/h 42% 0 mm
20:09 9.9 °C -2.7 °C 1029.3 hPa NE 3.2 km/h 4.8 km/h 41% 0 mm
20:14 10 °C -2.7 °C 1029.3 hPa NE 3.2 km/h 4.8 km/h 41% 0 mm
20:19 9.8 °C -2.9 °C 1029.3 hPa East 4.8 km/h 4.8 km/h 41% 0 mm
20:24 9.8 °C -2.9 °C 1029.3 hPa East 1.6 km/h 4.8 km/h 41% 0 mm
20:29 9.5 °C -2.8 °C 1029.3 hPa Calm   3.2 km/h 42% 0 mm
20:34 9.3 °C -2.7 °C 1029.3 hPa Calm   3.2 km/h 43% 0 mm
20:39 9.3 °C -2.7 °C 1029.3 hPa Calm   3.2 km/h 43% 0 mm
20:44 9.2 °C -2.4 °C 1029 hPa Calm   4.8 km/h 44% 0 mm
20:49 9.1 °C -2.8 °C 1029 hPa East 3.2 km/h 4.8 km/h 43% 0 mm
20:54 9.1 °C -2.9 °C 1029 hPa East 1.6 km/h 8 km/h 43% 0 mm
20:59 9.1 °C -3.2 °C 1029.3 hPa East 1.6 km/h 8 km/h 42% 0 mm
21:04 8.9 °C -3.3 °C 1029.3 hPa East 1.6 km/h 4.8 km/h 42% 0 mm
21:09 8.8 °C -3.4 °C 1029.3 hPa Calm   3.2 km/h 42% 0 mm
21:14 8.7 °C -3.5 °C 1029.3 hPa Calm     42% 0 mm
21:19 8.5 °C -3.4 °C 1029.3 hPa Calm     43% 0 mm
21:24 8.3 °C -3.2 °C 1029.3 hPa Calm     44% 0 mm
21:29 8.3 °C -3.6 °C 1029.3 hPa Calm     43% 0 mm
21:34 8.2 °C -3.4 °C 1029.3 hPa Calm     44% 0 mm
21:39 8 °C -3.6 °C 1029.3 hPa Calm     44% 0 mm
21:44 7.6 °C -3.3 °C 1029.3 hPa Calm     46% 0 mm
21:49 7.3 °C -3 °C 1029.7 hPa Calm     48% 0 mm
21:54 7 °C -3 °C 1029.7 hPa Calm     49% 0 mm
21:59 6.7 °C -3 °C 1029.7 hPa Calm     50% 0 mm
22:04 6.6 °C -2.6 °C 1029.7 hPa Calm     52% 0 mm
22:09 6.4 °C -2.5 °C 1029.7 hPa Calm     53% 0 mm
22:14 6.2 °C -2.4 °C 1029.7 hPa Calm     54% 0 mm
22:19 6 °C -2.4 °C 1029.7 hPa Calm     55% 0 mm
22:24 5.8 °C -2.3 °C 1029.7 hPa Calm     56% 0 mm
22:29 6.2 °C -2.7 °C 1029.3 hPa Calm     53% 0 mm
22:34 6.2 °C -2.7 °C 1029.3 hPa Calm     53% 0 mm
22:39 6 °C -2.4 °C 1029.7 hPa Calm     55% 0 mm
22:44 5.7 °C -2.4 °C 1029.7 hPa Calm     56% 0 mm
22:49 5.4 °C -2.2 °C 1029.7 hPa Calm     58% 0 mm
22:54 5.4 °C -2.2 °C 1029.7 hPa Calm     58% 0 mm
22:59 5.4 °C -2 °C 1029.7 hPa Calm     59% 0 mm
23:04 5.2 °C -2 °C 1029.7 hPa Calm     60% 0 mm
23:09 5 °C -1.9 °C 1029.7 hPa Calm     61% 0 mm
23:14 4.9 °C -1.7 °C 1029.7 hPa Calm     62% 0 mm
23:19 4.9 °C -1.7 °C 1029.7 hPa Calm     62% 0 mm
23:24 4.8 °C -1.8 °C 1029.7 hPa Calm     62% 0 mm
23:29 4.9 °C -2 °C 1029.7 hPa Calm     61% 0 mm
23:34 4.9 °C -1.7 °C 1030 hPa Calm     62% 0 mm
23:39 4.9 °C -1.5 °C 1030 hPa Calm     63% 0 mm
23:44 4.8 °C -1.6 °C 1030 hPa Calm     63% 0 mm
23:49 4.7 °C -1.6 °C 1030 hPa Calm     64% 0 mm
23:54 4.6 °C -1.6 °C 1030 hPa Calm     64% 0 mm
23:59 4.7 °C -1.3 °C 1030 hPa Calm     65% 0 mm
Buffalo, New York, USA
Compliments of Weather Underground - 2.5 mb